sensor_id;sensor_type;location;lat;lon;timestamp;P1;durP1;ratioP1;P2;durP2;ratioP2
42144;SDS011;27813;43.516;11.890;2022-08-01T03:23:24;2.03;;;1.10;;
42144;SDS011;27813;43.516;11.890;2022-08-01T03:27:42;6.75;;;1.30;;
42144;SDS011;27813;43.516;11.890;2022-08-01T03:31:48;1.70;;;1.10;;
42144;SDS011;27813;43.516;11.890;2022-08-01T03:35:53;2.38;;;1.10;;
42144;SDS011;27813;43.516;11.890;2022-08-01T03:40:06;1.25;;;1.00;;
42144;SDS011;27813;43.516;11.890;2022-08-01T03:44:15;1.85;;;1.08;;
42144;SDS011;27813;43.516;11.890;2022-08-01T03:48:26;3.05;;;1.40;;
42144;SDS011;27813;43.516;11.890;2022-08-01T03:52:32;1.50;;;1.00;;
42144;SDS011;27813;43.516;11.890;2022-08-01T03:56:39;1.38;;;1.13;;
42144;SDS011;27813;43.516;11.890;2022-08-01T04:00:46;1.70;;;1.10;;
42144;SDS011;27813;43.516;11.890;2022-08-01T04:04:51;1.40;;;1.05;;
42144;SDS011;27813;43.516;11.890;2022-08-01T04:08:55;1.40;;;1.20;;
42144;SDS011;27813;43.516;11.890;2022-08-01T04:13:00;1.40;;;1.17;;
42144;SDS011;27813;43.516;11.890;2022-08-01T04:17:04;1.40;;;1.08;;
42144;SDS011;27813;43.516;11.890;2022-08-01T04:25:14;3.10;;;1.40;;
42144;SDS011;27813;43.516;11.890;2022-08-01T04:29:23;1.92;;;1.20;;
42144;SDS011;27813;43.516;11.890;2022-08-01T04:33:29;1.52;;;1.10;;
42144;SDS011;27813;43.516;11.890;2022-08-01T04:37:35;1.50;;;1.10;;
42144;SDS011;27813;43.516;11.890;2022-08-01T04:41:39;2.00;;;1.33;;
42144;SDS011;27813;43.516;11.890;2022-08-01T04:45:44;3.33;;;1.05;;
42144;SDS011;27813;43.516;11.890;2022-08-01T04:49:50;3.08;;;1.55;;
42144;SDS011;27813;43.516;11.890;2022-08-01T04:53:55;1.30;;;1.05;;
42144;SDS011;27813;43.516;11.890;2022-08-01T04:58:00;1.95;;;1.30;;
42144;SDS011;27813;43.516;11.890;2022-08-01T05:02:09;9.18;;;1.40;;
42144;SDS011;27813;43.516;11.890;2022-08-01T05:06:15;2.33;;;1.10;;
42144;SDS011;27813;43.516;11.890;2022-08-01T05:10:19;1.20;;;0.80;;
42144;SDS011;27813;43.516;11.890;2022-08-01T05:14:24;2.47;;;1.00;;
42144;SDS011;27813;43.516;11.890;2022-08-01T05:18:29;1.40;;;0.90;;
42144;SDS011;27813;43.516;11.890;2022-08-01T05:22:34;1.60;;;0.90;;
42144;SDS011;27813;43.516;11.890;2022-08-01T05:26:38;1.10;;;0.80;;
42144;SDS011;27813;43.516;11.890;2022-08-01T05:30:43;1.23;;;1.00;;
42144;SDS011;27813;43.516;11.890;2022-08-01T05:34:48;1.10;;;0.80;;
42144;SDS011;27813;43.516;11.890;2022-08-01T05:38:52;2.40;;;1.10;;
42144;SDS011;27813;43.516;11.890;2022-08-01T05:42:56;1.80;;;1.00;;
42144;SDS011;27813;43.516;11.890;2022-08-01T05:47:00;1.85;;;0.90;;
42144;SDS011;27813;43.516;11.890;2022-08-01T05:51:05;1.70;;;0.98;;
42144;SDS011;27813;43.516;11.890;2022-08-01T05:55:14;1.63;;;0.75;;
42144;SDS011;27813;43.516;11.890;2022-08-01T05:59:47;2.25;;;1.00;;
42144;SDS011;27813;43.516;11.890;2022-08-01T06:04:24;1.92;;;1.23;;
42144;SDS011;27813;43.516;11.890;2022-08-01T06:08:55;1.65;;;0.90;;
42144;SDS011;27813;43.516;11.890;2022-08-01T06:13:03;3.38;;;1.20;;
42144;SDS011;27813;43.516;11.890;2022-08-01T06:17:39;2.78;;;0.95;;
42144;SDS011;27813;43.516;11.890;2022-08-01T06:22:16;1.45;;;1.20;;
42144;SDS011;27813;43.516;11.890;2022-08-01T06:26:52;3.05;;;0.98;;
42144;SDS011;27813;43.516;11.890;2022-08-01T06:31:42;1.50;;;0.90;;
42144;SDS011;27813;43.516;11.890;2022-08-01T06:36:13;1.70;;;1.10;;
42144;SDS011;27813;43.516;11.890;2022-08-01T06:40:49;2.10;;;0.88;;
42144;SDS011;27813;43.516;11.890;2022-08-01T06:45:27;1.77;;;0.82;;
42144;SDS011;27813;43.516;11.890;2022-08-01T06:49:40;1.38;;;0.80;;
42144;SDS011;27813;43.516;11.890;2022-08-01T06:53:50;1.42;;;0.90;;
42144;SDS011;27813;43.516;11.890;2022-08-01T06:57:54;0.98;;;0.70;;
42144;SDS011;27813;43.516;11.890;2022-08-01T07:02:00;2.78;;;0.93;;
42144;SDS011;27813;43.516;11.890;2022-08-01T07:06:04;1.08;;;0.80;;
42144;SDS011;27813;43.516;11.890;2022-08-01T07:10:08;1.75;;;0.80;;
42144;SDS011;27813;43.516;11.890;2022-08-01T07:14:14;2.70;;;1.23;;
42144;SDS011;27813;43.516;11.890;2022-08-01T07:18:20;1.20;;;1.00;;
42144;SDS011;27813;43.516;11.890;2022-08-01T07:22:29;2.25;;;0.90;;
42144;SDS011;27813;43.516;11.890;2022-08-01T07:26:33;2.10;;;1.10;;
42144;SDS011;27813;43.516;11.890;2022-08-01T07:30:37;1.30;;;0.90;;
42144;SDS011;27813;43.516;11.890;2022-08-01T07:34:41;2.95;;;0.95;;
42144;SDS011;27813;43.516;11.890;2022-08-01T07:38:46;1.10;;;0.80;;
42144;SDS011;27813;43.516;11.890;2022-08-01T07:42:50;1.38;;;0.88;;
42144;SDS011;27813;43.516;11.890;2022-08-01T07:46:54;1.60;;;0.80;;
42144;SDS011;27813;43.516;11.890;2022-08-01T07:50:59;2.38;;;0.98;;
42144;SDS011;27813;43.516;11.890;2022-08-01T07:55:03;3.28;;;0.95;;
42144;SDS011;27813;43.516;11.890;2022-08-01T07:59:08;1.30;;;0.80;;
42144;SDS011;27813;43.516;11.890;2022-08-01T08:03:12;2.38;;;1.05;;
42144;SDS011;27813;43.516;11.890;2022-08-01T08:07:17;5.28;;;0.77;;
42144;SDS011;27813;43.516;11.890;2022-08-01T08:11:21;1.60;;;0.90;;
42144;SDS011;27813;43.516;11.890;2022-08-01T08:15:31;2.42;;;1.10;;
42144;SDS011;27813;43.516;11.890;2022-08-01T08:19:36;1.77;;;0.95;;
42144;SDS011;27813;43.516;11.890;2022-08-01T08:23:42;1.85;;;0.80;;
42144;SDS011;27813;43.516;11.890;2022-08-01T08:28:05;1.50;;;1.00;;
42144;SDS011;27813;43.516;11.890;2022-08-01T08:32:09;1.75;;;1.00;;
42144;SDS011;27813;43.516;11.890;2022-08-01T08:36:14;2.30;;;0.80;;
42144;SDS011;27813;43.516;11.890;2022-08-01T08:40:19;2.90;;;0.95;;
42144;SDS011;27813;43.516;11.890;2022-08-01T08:44:29;3.97;;;0.98;;
42144;SDS011;27813;43.516;11.890;2022-08-01T08:48:34;2.28;;;1.00;;
42144;SDS011;27813;43.516;11.890;2022-08-01T08:52:40;0.90;;;0.68;;
42144;SDS011;27813;43.516;11.890;2022-08-01T08:56:46;1.08;;;0.77;;
42144;SDS011;27813;43.516;11.890;2022-08-01T09:00:51;0.95;;;0.60;;
42144;SDS011;27813;43.516;11.890;2022-08-01T09:04:57;1.17;;;0.77;;
42144;SDS011;27813;43.516;11.890;2022-08-01T09:09:03;1.05;;;0.80;;
42144;SDS011;27813;43.516;11.890;2022-08-01T09:13:12;1.00;;;0.70;;
42144;SDS011;27813;43.516;11.890;2022-08-01T09:17:17;1.63;;;0.70;;
42144;SDS011;27813;43.516;11.890;2022-08-01T09:21:23;1.20;;;0.70;;
42144;SDS011;27813;43.516;11.890;2022-08-01T09:25:30;1.42;;;0.90;;
42144;SDS011;27813;43.516;11.890;2022-08-01T09:30:08;2.10;;;0.75;;
42144;SDS011;27813;43.516;11.890;2022-08-01T09:34:30;0.88;;;0.70;;
42144;SDS011;27813;43.516;11.890;2022-08-01T09:38:36;3.58;;;0.88;;
42144;SDS011;27813;43.516;11.890;2022-08-01T09:42:40;1.73;;;0.93;;
42144;SDS011;27813;43.516;11.890;2022-08-01T09:46:48;1.42;;;0.73;;
42144;SDS011;27813;43.516;11.890;2022-08-01T09:50:55;1.40;;;0.70;;
42144;SDS011;27813;43.516;11.890;2022-08-01T09:55:14;2.40;;;0.80;;
42144;SDS011;27813;43.516;11.890;2022-08-01T09:59:56;1.55;;;0.80;;
42144;SDS011;27813;43.516;11.890;2022-08-01T10:04:15;2.25;;;0.80;;
42144;SDS011;27813;43.516;11.890;2022-08-01T10:08:23;1.58;;;0.93;;
42144;SDS011;27813;43.516;11.890;2022-08-01T10:12:30;2.10;;;0.80;;
42144;SDS011;27813;43.516;11.890;2022-08-01T10:16:38;1.52;;;1.02;;
42144;SDS011;27813;43.516;11.890;2022-08-01T10:20:43;2.22;;;0.80;;
42144;SDS011;27813;43.516;11.890;2022-08-01T10:24:50;1.40;;;1.08;;
42144;SDS011;27813;43.516;11.890;2022-08-01T10:28:59;1.40;;;0.93;;
42144;SDS011;27813;43.516;11.890;2022-08-01T10:33:05;1.48;;;0.90;;
42144;SDS011;27813;43.516;11.890;2022-08-01T10:41:21;0.93;;;0.70;;
42144;SDS011;27813;43.516;11.890;2022-08-01T10:45:29;1.35;;;0.70;;
42144;SDS011;27813;43.516;11.890;2022-08-01T10:49:34;2.50;;;0.80;;
42144;SDS011;27813;43.516;11.890;2022-08-01T10:53:59;1.90;;;0.90;;
42144;SDS011;27813;43.516;11.890;2022-08-01T10:58:11;1.58;;;0.82;;
42144;SDS011;27813;43.516;11.890;2022-08-01T11:02:31;1.30;;;0.82;;
42144;SDS011;27813;43.516;11.890;2022-08-01T11:11:01;1.25;;;0.70;;
42144;SDS011;27813;43.516;11.890;2022-08-01T11:19:13;1.95;;;0.70;;
42144;SDS011;27813;43.516;11.890;2022-08-01T11:23:18;1.30;;;0.80;;
42144;SDS011;27813;43.516;11.890;2022-08-01T11:27:29;1.20;;;0.80;;
42144;SDS011;27813;43.516;11.890;2022-08-01T11:31:35;2.53;;;0.90;;
42144;SDS011;27813;43.516;11.890;2022-08-01T11:40:21;0.98;;;0.80;;
42144;SDS011;27813;43.516;11.890;2022-08-01T11:44:33;1.30;;;0.88;;
42144;SDS011;27813;43.516;11.890;2022-08-01T11:53:31;0.73;;;0.60;;
42144;SDS011;27813;43.516;11.890;2022-08-01T11:57:38;1.85;;;0.88;;
42144;SDS011;27813;43.516;11.890;2022-08-01T12:01:42;2.35;;;0.73;;
42144;SDS011;27813;43.516;11.890;2022-08-01T12:05:49;1.60;;;0.80;;
42144;SDS011;27813;43.516;11.890;2022-08-01T12:10:11;1.30;;;0.70;;
42144;SDS011;27813;43.516;11.890;2022-08-01T12:14:18;1.08;;;0.73;;
42144;SDS011;27813;43.516;11.890;2022-08-01T12:18:24;1.05;;;0.75;;
42144;SDS011;27813;43.516;11.890;2022-08-01T12:22:32;2.08;;;0.88;;
42144;SDS011;27813;43.516;11.890;2022-08-01T12:26:42;1.20;;;0.90;;
42144;SDS011;27813;43.516;11.890;2022-08-01T12:30:47;1.13;;;0.70;;
42144;SDS011;27813;43.516;11.890;2022-08-01T12:34:53;1.00;;;0.70;;
42144;SDS011;27813;43.516;11.890;2022-08-01T12:39:01;1.15;;;0.90;;
42144;SDS011;27813;43.516;11.890;2022-08-01T12:43:08;1.13;;;0.80;;
42144;SDS011;27813;43.516;11.890;2022-08-01T12:47:29;0.98;;;0.75;;
42144;SDS011;27813;43.516;11.890;2022-08-01T12:51:33;1.00;;;0.73;;
42144;SDS011;27813;43.516;11.890;2022-08-01T12:55:45;1.98;;;0.80;;
42144;SDS011;27813;43.516;11.890;2022-08-01T13:00:05;1.30;;;0.82;;
42144;SDS011;27813;43.516;11.890;2022-08-01T13:04:13;3.35;;;0.80;;
42144;SDS011;27813;43.516;11.890;2022-08-01T13:08:19;1.42;;;0.80;;
42144;SDS011;27813;43.516;11.890;2022-08-01T13:12:27;2.03;;;0.80;;
42144;SDS011;27813;43.516;11.890;2022-08-01T13:16:31;1.27;;;0.88;;
42144;SDS011;27813;43.516;11.890;2022-08-01T13:21:16;0.93;;;0.80;;
42144;SDS011;27813;43.516;11.890;2022-08-01T13:25:22;1.48;;;0.82;;
42144;SDS011;27813;43.516;11.890;2022-08-01T13:29:30;1.25;;;0.60;;
42144;SDS011;27813;43.516;11.890;2022-08-01T13:33:46;1.30;;;0.70;;
42144;SDS011;27813;43.516;11.890;2022-08-01T13:38:02;1.35;;;0.90;;
42144;SDS011;27813;43.516;11.890;2022-08-01T13:42:07;3.42;;;0.90;;
42144;SDS011;27813;43.516;11.890;2022-08-01T13:46:12;1.38;;;0.85;;
42144;SDS011;27813;43.516;11.890;2022-08-01T13:50:22;4.63;;;0.77;;
42144;SDS011;27813;43.516;11.890;2022-08-01T13:54:27;1.30;;;0.80;;
42144;SDS011;27813;43.516;11.890;2022-08-01T13:58:31;2.55;;;1.00;;
42144;SDS011;27813;43.516;11.890;2022-08-01T14:02:36;1.00;;;0.85;;
42144;SDS011;27813;43.516;11.890;2022-08-01T14:06:41;2.47;;;0.90;;
42144;SDS011;27813;43.516;11.890;2022-08-01T14:10:46;1.42;;;0.73;;
42144;SDS011;27813;43.516;11.890;2022-08-01T14:14:51;1.15;;;0.80;;
42144;SDS011;27813;43.516;11.890;2022-08-01T14:18:55;0.98;;;0.60;;
42144;SDS011;27813;43.516;11.890;2022-08-01T14:22:59;1.33;;;0.80;;
42144;SDS011;27813;43.516;11.890;2022-08-01T14:27:05;1.25;;;0.80;;
42144;SDS011;27813;43.516;11.890;2022-08-01T14:31:10;1.20;;;0.82;;
42144;SDS011;27813;43.516;11.890;2022-08-01T14:35:14;1.35;;;0.80;;
42144;SDS011;27813;43.516;11.890;2022-08-01T14:39:18;1.88;;;0.65;;
42144;SDS011;27813;43.516;11.890;2022-08-01T14:43:23;1.10;;;0.70;;
42144;SDS011;27813;43.516;11.890;2022-08-01T14:47:38;1.20;;;0.80;;
42144;SDS011;27813;43.516;11.890;2022-08-01T14:51:44;2.90;;;0.80;;
42144;SDS011;27813;43.516;11.890;2022-08-01T14:55:50;1.92;;;0.70;;
42144;SDS011;27813;43.516;11.890;2022-08-01T14:59:54;2.05;;;0.60;;
42144;SDS011;27813;43.516;11.890;2022-08-01T15:04:00;0.88;;;0.70;;
42144;SDS011;27813;43.516;11.890;2022-08-01T15:08:06;1.25;;;0.60;;
42144;SDS011;27813;43.516;11.890;2022-08-01T15:12:11;0.70;;;0.60;;
42144;SDS011;27813;43.516;11.890;2022-08-01T15:16:16;0.90;;;0.70;;
42144;SDS011;27813;43.516;11.890;2022-08-01T15:20:20;1.35;;;0.70;;
42144;SDS011;27813;43.516;11.890;2022-08-01T15:24:26;1.67;;;0.95;;
42144;SDS011;27813;43.516;11.890;2022-08-01T15:28:30;1.65;;;0.93;;
42144;SDS011;27813;43.516;11.890;2022-08-01T15:32:34;1.85;;;0.80;;
42144;SDS011;27813;43.516;11.890;2022-08-01T15:36:40;1.38;;;0.88;;
42144;SDS011;27813;43.516;11.890;2022-08-01T15:40:45;0.95;;;0.70;;
42144;SDS011;27813;43.516;11.890;2022-08-01T15:44:49;1.20;;;0.80;;
42144;SDS011;27813;43.516;11.890;2022-08-01T15:48:54;1.58;;;0.77;;
42144;SDS011;27813;43.516;11.890;2022-08-01T15:52:59;1.70;;;0.88;;
42144;SDS011;27813;43.516;11.890;2022-08-01T15:57:03;0.90;;;0.70;;
42144;SDS011;27813;43.516;11.890;2022-08-01T16:01:08;2.28;;;1.02;;
42144;SDS011;27813;43.516;11.890;2022-08-01T16:05:12;1.35;;;0.80;;
42144;SDS011;27813;43.516;11.890;2022-08-01T16:09:21;0.70;;;0.63;;
42144;SDS011;27813;43.516;11.890;2022-08-01T16:13:28;0.98;;;0.70;;
42144;SDS011;27813;43.516;11.890;2022-08-01T16:17:32;1.38;;;0.73;;
42144;SDS011;27813;43.516;11.890;2022-08-01T16:21:46;2.58;;;0.70;;
42144;SDS011;27813;43.516;11.890;2022-08-01T16:25:50;1.42;;;0.90;;
42144;SDS011;27813;43.516;11.890;2022-08-01T16:29:55;2.30;;;1.10;;
42144;SDS011;27813;43.516;11.890;2022-08-01T16:33:59;1.77;;;0.90;;
42144;SDS011;27813;43.516;11.890;2022-08-01T16:38:08;1.30;;;1.10;;
42144;SDS011;27813;43.516;11.890;2022-08-01T16:42:15;1.42;;;0.93;;
42144;SDS011;27813;43.516;11.890;2022-08-01T16:46:27;3.37;;;1.20;;
42144;SDS011;27813;43.516;11.890;2022-08-01T16:50:34;1.30;;;0.90;;
42144;SDS011;27813;43.516;11.890;2022-08-01T16:54:39;3.15;;;1.40;;
42144;SDS011;27813;43.516;11.890;2022-08-01T16:58:44;1.23;;;0.80;;
42144;SDS011;27813;43.516;11.890;2022-08-01T17:02:48;1.60;;;0.80;;
42144;SDS011;27813;43.516;11.890;2022-08-01T17:06:52;2.20;;;0.98;;
42144;SDS011;27813;43.516;11.890;2022-08-01T17:10:56;2.92;;;1.08;;
42144;SDS011;27813;43.516;11.890;2022-08-01T17:15:00;2.33;;;1.00;;
42144;SDS011;27813;43.516;11.890;2022-08-01T17:19:04;1.98;;;0.90;;
42144;SDS011;27813;43.516;11.890;2022-08-01T17:23:08;1.00;;;0.70;;
42144;SDS011;27813;43.516;11.890;2022-08-01T17:27:13;1.70;;;0.70;;
42144;SDS011;27813;43.516;11.890;2022-08-01T17:31:18;3.25;;;1.70;;
42144;SDS011;27813;43.516;11.890;2022-08-01T17:35:22;7.90;;;4.93;;
42144;SDS011;27813;43.516;11.890;2022-08-01T17:39:26;6.50;;;4.85;;
42144;SDS011;27813;43.516;11.890;2022-08-01T17:43:40;15.00;;;8.70;;
42144;SDS011;27813;43.516;11.890;2022-08-01T17:47:47;11.07;;;6.78;;
42144;SDS011;27813;43.516;11.890;2022-08-01T17:51:53;5.07;;;3.30;;
42144;SDS011;27813;43.516;11.890;2022-08-01T17:55:57;2.97;;;1.98;;
42144;SDS011;27813;43.516;11.890;2022-08-01T18:00:04;2.90;;;2.25;;
42144;SDS011;27813;43.516;11.890;2022-08-01T18:04:12;2.35;;;1.35;;
42144;SDS011;27813;43.516;11.890;2022-08-01T18:08:17;2.53;;;1.33;;
42144;SDS011;27813;43.516;11.890;2022-08-01T18:12:21;2.97;;;1.60;;
42144;SDS011;27813;43.516;11.890;2022-08-01T18:16:26;4.85;;;1.80;;
42144;SDS011;27813;43.516;11.890;2022-08-01T18:20:30;4.80;;;1.48;;
42144;SDS011;27813;43.516;11.890;2022-08-01T18:24:36;3.80;;;1.30;;
42144;SDS011;27813;43.516;11.890;2022-08-01T18:28:40;2.97;;;1.30;;
42144;SDS011;27813;43.516;11.890;2022-08-01T18:32:48;2.53;;;1.35;;
42144;SDS011;27813;43.516;11.890;2022-08-01T18:36:52;3.40;;;1.58;;
42144;SDS011;27813;43.516;11.890;2022-08-01T18:41:00;2.22;;;1.67;;
42144;SDS011;27813;43.516;11.890;2022-08-01T18:45:05;2.33;;;1.23;;
42144;SDS011;27813;43.516;11.890;2022-08-01T18:49:10;1.30;;;1.00;;
42144;SDS011;27813;43.516;11.890;2022-08-01T18:53:15;1.98;;;1.13;;
42144;SDS011;27813;43.516;11.890;2022-08-01T18:57:21;1.67;;;1.30;;
42144;SDS011;27813;43.516;11.890;2022-08-01T19:01:25;1.13;;;0.90;;
42144;SDS011;27813;43.516;11.890;2022-08-01T19:05:29;2.10;;;1.23;;
42144;SDS011;27813;43.516;11.890;2022-08-01T19:09:37;3.05;;;0.95;;
42144;SDS011;27813;43.516;11.890;2022-08-01T19:13:43;2.92;;;1.10;;
42144;SDS011;27813;43.516;11.890;2022-08-01T19:17:47;1.35;;;1.00;;
42144;SDS011;27813;43.516;11.890;2022-08-01T19:21:52;1.70;;;1.00;;
42144;SDS011;27813;43.516;11.890;2022-08-01T19:25:58;2.67;;;0.90;;
42144;SDS011;27813;43.516;11.890;2022-08-01T19:30:10;4.55;;;1.48;;
42144;SDS011;27813;43.516;11.890;2022-08-01T19:34:15;2.13;;;0.75;;
42144;SDS011;27813;43.516;11.890;2022-08-01T19:38:29;2.17;;;0.90;;
42144;SDS011;27813;43.516;11.890;2022-08-01T19:42:38;1.52;;;1.00;;
42144;SDS011;27813;43.516;11.890;2022-08-01T19:46:46;1.48;;;0.80;;
42144;SDS011;27813;43.516;11.890;2022-08-01T19:50:51;2.35;;;0.90;;
42144;SDS011;27813;43.516;11.890;2022-08-01T19:54:59;1.23;;;1.00;;
42144;SDS011;27813;43.516;11.890;2022-08-01T19:59:15;2.42;;;1.15;;
42144;SDS011;27813;43.516;11.890;2022-08-01T20:03:24;1.50;;;1.00;;
42144;SDS011;27813;43.516;11.890;2022-08-01T20:07:30;2.00;;;1.20;;
42144;SDS011;27813;43.516;11.890;2022-08-01T20:11:40;3.03;;;1.00;;
42144;SDS011;27813;43.516;11.890;2022-08-01T20:15:51;2.65;;;0.90;;
42144;SDS011;27813;43.516;11.890;2022-08-01T20:20:00;1.58;;;1.17;;
42144;SDS011;27813;43.516;11.890;2022-08-01T20:24:06;1.70;;;0.98;;
42144;SDS011;27813;43.516;11.890;2022-08-01T20:28:14;1.20;;;0.90;;
42144;SDS011;27813;43.516;11.890;2022-08-01T20:32:22;1.02;;;0.88;;
42144;SDS011;27813;43.516;11.890;2022-08-01T20:36:30;2.58;;;1.10;;
42144;SDS011;27813;43.516;11.890;2022-08-01T20:40:41;1.33;;;0.90;;
42144;SDS011;27813;43.516;11.890;2022-08-01T20:44:47;1.73;;;1.15;;
42144;SDS011;27813;43.516;11.890;2022-08-01T20:48:54;2.45;;;1.10;;
42144;SDS011;27813;43.516;11.890;2022-08-01T20:53:02;2.38;;;1.00;;
42144;SDS011;27813;43.516;11.890;2022-08-01T20:57:11;1.45;;;1.10;;
42144;SDS011;27813;43.516;11.890;2022-08-01T21:02:22;3.83;;;1.15;;
42144;SDS011;27813;43.516;11.890;2022-08-01T21:06:11;1.40;;;1.05;;
42144;SDS011;27813;43.516;11.890;2022-08-01T21:10:18;2.72;;;1.08;;
42144;SDS011;27813;43.516;11.890;2022-08-01T21:14:51;1.60;;;1.08;;
42144;SDS011;27813;43.516;11.890;2022-08-01T21:19:00;2.35;;;1.20;;
42144;SDS011;27813;43.516;11.890;2022-08-01T21:23:30;3.28;;;1.20;;
42144;SDS011;27813;43.516;11.890;2022-08-01T21:27:42;2.17;;;1.02;;
42144;SDS011;27813;43.516;11.890;2022-08-01T21:31:49;1.40;;;0.93;;
42144;SDS011;27813;43.516;11.890;2022-08-01T21:36:14;1.50;;;1.23;;
42144;SDS011;27813;43.516;11.890;2022-08-01T21:40:22;1.60;;;1.10;;
42144;SDS011;27813;43.516;11.890;2022-08-01T21:44:29;3.45;;;1.77;;
42144;SDS011;27813;43.516;11.890;2022-08-01T21:48:35;1.90;;;1.10;;
42144;SDS011;27813;43.516;11.890;2022-08-01T21:52:45;1.50;;;1.00;;
42144;SDS011;27813;43.516;11.890;2022-08-01T22:01:03;1.10;;;0.90;;
42144;SDS011;27813;43.516;11.890;2022-08-01T22:05:35;1.33;;;1.10;;
42144;SDS011;27813;43.516;11.890;2022-08-01T22:09:53;1.50;;;1.17;;
42144;SDS011;27813;43.516;11.890;2022-08-01T22:14:02;1.52;;;1.30;;
42144;SDS011;27813;43.516;11.890;2022-08-01T22:18:15;1.83;;;1.10;;
42144;SDS011;27813;43.516;11.890;2022-08-01T22:22:20;1.60;;;1.23;;
42144;SDS011;27813;43.516;11.890;2022-08-01T22:26:46;3.80;;;1.30;;
42144;SDS011;27813;43.516;11.890;2022-08-01T22:30:56;1.75;;;1.17;;
42144;SDS011;27813;43.516;11.890;2022-08-01T22:35:04;1.77;;;1.30;;
42144;SDS011;27813;43.516;11.890;2022-08-01T22:39:19;2.90;;;1.48;;
42144;SDS011;27813;43.516;11.890;2022-08-01T22:52:04;1.50;;;1.10;;
42144;SDS011;27813;43.516;11.890;2022-08-01T22:56:21;2.72;;;1.20;;
42144;SDS011;27813;43.516;11.890;2022-08-01T23:00:26;1.63;;;1.25;;
42144;SDS011;27813;43.516;11.890;2022-08-01T23:08:42;2.25;;;1.55;;
42144;SDS011;27813;43.516;11.890;2022-08-01T23:12:51;1.70;;;1.10;;
42144;SDS011;27813;43.516;11.890;2022-08-01T23:16:57;1.67;;;1.10;;
42144;SDS011;27813;43.516;11.890;2022-08-01T23:21:28;2.95;;;1.30;;
42144;SDS011;27813;43.516;11.890;2022-08-01T23:25:33;1.35;;;1.10;;
42144;SDS011;27813;43.516;11.890;2022-08-01T23:29:39;2.38;;;1.33;;
